Terminal Aerodrome Forecast
Issued by NWS

Home | Current Version | Previous Version | Text Only | Print | Product List | Glossary On
Versions: 1 2 3 4 5 6 7 8 9 10 11 12 13 14 15
000
FTUS46 KSGX 281120
TAFSNA
TAF
KSNA 281120Z 2812/2912 VRB03KT P6SM OVC014
     FM281600 VRB04KT P6SM SCT016
     FM281900 21011KT P6SM SKC
     FM290200 VRB05KT P6SM FEW013
     FM290800 VRB03KT P6SM BKN011=

USA.gov is the U.S. government's official web portal to all federal, state and local government web resources and services.